createdAt,value
2019-05-10T00:01:02.451Z,84.20
2019-05-10T00:04:05.983Z,84.30
2019-05-10T00:07:10.042Z,84.40
2019-05-10T00:09:55.094Z,84.30
2019-05-10T00:12:44.690Z,84.70
2019-05-10T00:15:31.137Z,85.30
2019-05-10T00:18:16.454Z,85.50
2019-05-10T00:21:01.505Z,85.30
2019-05-10T00:23:46.630Z,85.30
2019-05-10T00:26:31.385Z,85.60
2019-05-10T00:29:16.493Z,85.90
2019-05-10T00:32:01.676Z,86.50
2019-05-10T00:34:46.970Z,86.50
2019-05-10T00:37:31.829Z,86.20
2019-05-10T00:40:16.744Z,86.00
2019-05-10T00:43:02.077Z,85.70
2019-05-10T00:45:46.925Z,85.20
2019-05-10T00:48:31.906Z,85.50
2019-05-10T00:51:16.661Z,85.40
2019-05-10T00:54:01.417Z,85.00
2019-05-10T00:56:47.180Z,84.90
2019-05-10T00:59:31.932Z,84.80
2019-05-10T01:02:16.838Z,84.70
2019-05-10T01:05:01.927Z,85.00
2019-05-10T01:07:47.134Z,85.20
2019-05-10T01:10:31.889Z,84.90
2019-05-10T01:13:16.786Z,85.20
2019-05-10T01:16:01.562Z,85.40
2019-05-10T01:18:46.546Z,85.10
2019-05-10T01:21:31.205Z,85.10
2019-05-10T01:24:16.157Z,84.90
2019-05-10T01:27:01.058Z,84.90
2019-05-10T01:29:46.015Z,84.20
2019-05-10T01:32:30.963Z,83.80
2019-05-10T01:35:15.736Z,83.90
2019-05-10T01:38:00.629Z,83.70
2019-05-10T01:40:45.481Z,82.80
2019-05-10T01:43:30.308Z,83.00
2019-05-10T01:46:15.016Z,82.90
2019-05-10T01:48:59.794Z,83.20
2019-05-10T01:51:44.522Z,82.90
2019-05-10T01:54:29.357Z,83.10
2019-05-10T01:57:14.370Z,83.10
2019-05-10T01:59:59.353Z,82.90
2019-05-10T02:02:44.261Z,82.40
2019-05-10T02:05:29.001Z,82.30
2019-05-10T02:08:14.437Z,82.90
2019-05-10T02:10:59.334Z,82.40
2019-05-10T02:13:44.018Z,82.00
2019-05-10T02:16:28.890Z,82.50
2019-05-10T02:19:13.707Z,82.40
2019-05-10T02:21:58.658Z,83.40
2019-05-10T02:24:43.422Z,82.90
2019-05-10T02:27:28.400Z,82.20
2019-05-10T02:30:13.854Z,82.40
2019-05-10T02:32:58.874Z,82.20
2019-05-10T02:35:43.709Z,82.00
2019-05-10T02:38:28.465Z,82.20
2019-05-10T02:41:13.477Z,81.60
2019-05-10T02:43:58.319Z,81.30
2019-05-10T02:46:43.097Z,81.40
2019-05-10T02:49:27.854Z,81.80
2019-05-10T02:52:14.090Z,82.10
2019-05-10T02:54:59.784Z,82.10
2019-05-10T02:57:45.755Z,82.30
2019-05-10T03:00:33.353Z,83.60
2019-05-10T03:03:22.190Z,83.00
2019-05-10T03:06:11.978Z,82.90
2019-05-10T03:08:56.614Z,83.20
2019-05-10T03:11:47.262Z,83.10
2019-05-10T03:14:37.297Z,84.20
2019-05-10T03:17:23.279Z,85.30
2019-05-10T03:20:09.307Z,83.90
2019-05-10T03:22:54.847Z,84.20
2019-05-10T03:25:39.981Z,84.50
2019-05-10T03:28:24.919Z,84.20
2019-05-10T03:31:09.892Z,84.60
2019-05-10T03:33:57.575Z,85.00
2019-05-10T03:36:42.038Z,85.00
2019-05-10T03:39:27.082Z,85.30
2019-05-10T03:42:12.473Z,85.00
2019-05-10T03:44:57.074Z,86.60
2019-05-10T03:47:42.061Z,85.60
2019-05-10T03:50:26.943Z,85.10
2019-05-10T03:53:11.674Z,85.90
2019-05-10T03:55:56.460Z,85.30
2019-05-10T03:58:41.247Z,85.60
2019-05-10T04:01:26.395Z,85.90
2019-05-10T04:04:11.490Z,86.50
2019-05-10T04:06:56.447Z,86.90
2019-05-10T04:09:41.217Z,87.40
2019-05-10T04:12:26.017Z,87.80
2019-05-10T04:15:11.049Z,87.80
2019-05-10T04:17:56.545Z,87.60
2019-05-10T04:20:41.519Z,87.90
2019-05-10T04:23:26.407Z,87.70
2019-05-10T04:26:11.351Z,87.10
2019-05-10T04:28:57.536Z,87.70
2019-05-10T04:31:42.650Z,87.60
2019-05-10T04:34:27.818Z,87.20
2019-05-10T04:37:12.679Z,87.50
2019-05-10T04:39:57.618Z,87.60
2019-05-10T04:42:42.424Z,87.50
2019-05-10T04:45:27.376Z,87.60
2019-05-10T04:48:12.070Z,87.30
2019-05-10T04:50:57.197Z,87.00
2019-05-10T04:53:42.064Z,88.30
2019-05-10T04:56:26.825Z,86.50
2019-05-10T04:59:11.617Z,86.50
2019-05-10T05:01:56.453Z,87.10
2019-05-10T05:04:42.802Z,86.30
2019-05-10T05:07:27.637Z,85.90
2019-05-10T05:10:12.726Z,85.80
2019-05-10T05:12:57.492Z,85.90
2019-05-10T05:15:42.299Z,85.00
2019-05-10T05:18:27.123Z,83.80
2019-05-10T05:21:11.944Z,83.90
2019-05-10T05:23:56.609Z,82.80
2019-05-10T05:26:41.461Z,82.90
2019-05-10T05:29:26.165Z,82.60
2019-05-10T05:32:13.333Z,82.10
2019-05-10T05:34:57.947Z,81.90
2019-05-10T05:37:42.572Z,81.00
2019-05-10T05:40:27.322Z,80.90
2019-05-10T05:43:12.134Z,80.10
2019-05-10T05:45:56.987Z,79.30
2019-05-10T05:48:41.785Z,80.10
2019-05-10T05:51:26.572Z,78.30
2019-05-10T05:54:14.997Z,78.40
2019-05-10T05:56:58.264Z,77.80
2019-05-10T05:59:43.028Z,76.40
2019-05-10T06:02:27.699Z,75.90
2019-05-10T06:05:32.721Z,75.20
2019-05-10T06:08:00.534Z,74.60
2019-05-10T06:10:56.131Z,74.60
2019-05-10T06:13:32.662Z,75.80
2019-05-10T06:16:17.513Z,76.50
2019-05-10T06:19:02.361Z,76.90
2019-05-10T06:21:47.077Z,77.50
2019-05-10T06:24:34.332Z,77.00
2019-05-10T06:27:18.848Z,75.90
2019-05-10T06:30:04.553Z,74.80
2019-05-10T06:32:53.214Z,75.20
2019-05-10T06:35:36.352Z,74.60
2019-05-10T06:38:21.242Z,73.40
2019-05-10T06:41:09.997Z,73.50
2019-05-10T06:43:54.116Z,73.10
2019-05-10T06:46:38.925Z,72.70
2019-05-10T06:49:24.396Z,74.00
2019-05-10T06:52:09.189Z,73.30
2019-05-10T06:54:54.236Z,74.10
2019-05-10T06:57:39.043Z,72.60
2019-05-10T07:00:23.745Z,72.00
2019-05-10T07:03:08.460Z,72.80
2019-05-10T07:05:53.153Z,70.60
2019-05-10T07:08:44.362Z,71.10
2019-05-10T07:11:24.743Z,71.50
2019-05-10T07:14:09.825Z,72.30
2019-05-10T07:16:56.503Z,72.30
2019-05-10T07:19:53.067Z,73.20
2019-05-10T07:22:29.060Z,72.10
2019-05-10T07:25:14.417Z,71.30
2019-05-10T07:27:59.221Z,71.30
2019-05-10T07:30:44.008Z,71.00
2019-05-10T07:33:32.215Z,70.30
2019-05-10T07:36:20.760Z,70.00
2019-05-10T07:39:08.411Z,69.10
2019-05-10T07:41:51.654Z,66.30
2019-05-10T07:44:36.673Z,66.80
2019-05-10T07:47:24.011Z,67.30
2019-05-10T07:50:11.650Z,66.30
2019-05-10T07:52:57.121Z,65.20
2019-05-10T07:55:42.736Z,66.80
2019-05-10T07:58:27.667Z,66.90
2019-05-10T08:01:12.471Z,64.70
2019-05-10T08:03:59.215Z,65.20
2019-05-10T08:06:47.937Z,62.40
2019-05-10T08:09:31.783Z,62.60
2019-05-10T08:12:19.284Z,62.90
2019-05-10T08:15:08.431Z,63.60
2019-05-10T08:17:53.350Z,64.00
2019-05-10T08:20:49.295Z,64.90
2019-05-10T08:23:27.860Z,61.10
2019-05-10T08:26:19.727Z,60.40
2019-05-10T08:28:58.570Z,61.60
2019-05-10T08:31:49.037Z,63.80
2019-05-10T08:34:35.482Z,63.90
2019-05-10T08:37:27.211Z,63.40
2019-05-10T08:40:04.663Z,61.00
2019-05-10T08:43:00.178Z,60.50
2019-05-10T08:45:38.977Z,59.60
2019-05-10T08:48:27.549Z,60.10
2019-05-10T08:51:12.616Z,57.80
2019-05-10T08:53:58.370Z,56.70
2019-05-10T08:56:46.717Z,55.60
2019-05-10T08:59:33.791Z,56.30
2019-05-10T09:02:23.083Z,56.00
2019-05-10T09:05:06.001Z,54.90
2019-05-10T09:07:52.143Z,56.60
2019-05-10T09:10:37.322Z,62.30
2019-05-10T09:13:22.914Z,67.90
2019-05-10T09:16:08.451Z,67.80
2019-05-10T09:18:53.677Z,70.40
2019-05-10T09:21:41.311Z,72.70
2019-05-10T09:24:26.517Z,72.40
2019-05-10T09:27:12.872Z,66.80
2019-05-10T09:29:58.269Z,70.50
2019-05-10T09:32:43.820Z,71.10
2019-05-10T09:35:29.062Z,72.90
2019-05-10T09:38:13.779Z,75.00
2019-05-10T09:40:58.754Z,74.10
2019-05-10T09:43:48.958Z,75.90
2019-05-10T09:46:32.440Z,75.60
2019-05-10T09:49:18.494Z,76.20
2019-05-10T09:52:12.407Z,75.40
2019-05-10T09:54:50.910Z,71.80
2019-05-10T09:57:37.830Z,73.80
2019-05-10T10:00:34.165Z,74.40
2019-05-10T10:03:19.458Z,71.20
2019-05-10T10:06:07.632Z,69.00
2019-05-10T10:08:53.310Z,70.10
2019-05-10T10:11:37.837Z,70.60
2019-05-10T10:14:22.848Z,73.10
2019-05-10T10:17:08.253Z,69.50
2019-05-10T10:19:53.541Z,72.10
2019-05-10T10:22:38.370Z,70.30
2019-05-10T10:25:23.184Z,70.50
2019-05-10T10:28:16.719Z,62.70
2019-05-10T10:31:03.368Z,61.60
2019-05-10T10:33:43.007Z,61.70
2019-05-10T10:36:28.413Z,62.80
2019-05-10T10:39:13.546Z,63.30
2019-05-10T10:42:02.632Z,59.20
2019-05-10T10:44:48.161Z,58.80
2019-05-10T10:47:32.753Z,59.30
2019-05-10T10:50:17.617Z,58.80
2019-05-10T10:53:02.561Z,59.50
2019-05-10T10:55:54.208Z,59.00
2019-05-10T10:58:34.286Z,56.40
2019-05-10T11:01:25.009Z,57.90
2019-05-10T11:04:08.258Z,57.40
2019-05-10T11:07:08.827Z,57.10
2019-05-10T11:09:40.987Z,53.30
2019-05-10T11:12:26.513Z,55.10
2019-05-10T11:15:16.352Z,55.90
2019-05-10T11:18:00.456Z,55.30
2019-05-10T11:20:49.549Z,56.70
2019-05-10T11:23:37.595Z,58.70
2019-05-10T11:26:21.745Z,62.10
2019-05-10T11:29:07.022Z,62.60
2019-05-10T11:32:11.173Z,62.20
2019-05-10T11:34:38.978Z,64.20
2019-05-10T11:37:30.866Z,63.00
2019-05-10T11:40:11.606Z,64.20
2019-05-10T11:42:56.473Z,62.80
2019-05-10T11:45:44.182Z,62.40
2019-05-10T11:48:36.829Z,62.10
2019-05-10T11:51:17.600Z,63.20
2019-05-10T11:54:03.658Z,68.70
2019-05-10T11:56:48.723Z,70.30
2019-05-10T12:02:36.994Z,80.10
2019-05-10T12:05:16.659Z,74.70
2019-05-10T12:07:54.961Z,69.40
2019-05-10T12:10:42.516Z,63.90
2019-05-10T12:13:27.289Z,59.80
2019-05-10T12:16:16.644Z,63.40
2019-05-10T12:19:10.500Z,65.60
2019-05-10T12:21:45.986Z,67.60
2019-05-10T12:24:45.582Z,70.10
2019-05-10T12:25:59.519Z,78.60
2019-05-10T12:27:25.937Z,66.10
2019-05-10T12:30:05.358Z,65.50
2019-05-10T12:33:05.981Z,64.40
2019-05-10T12:35:41.896Z,63.60
2019-05-10T12:38:29.698Z,61.40
2019-05-10T12:41:11.084Z,58.40
2019-05-10T12:44:02.959Z,57.90
2019-05-10T12:46:43.844Z,55.10
2019-05-10T12:49:28.536Z,51.00
2019-05-10T12:52:14.042Z,50.30
2019-05-10T12:55:00.070Z,50.20
2019-05-10T12:57:44.850Z,48.30
2019-05-10T13:00:29.793Z,49.40
2019-05-10T13:03:14.567Z,50.50
2019-05-10T13:05:59.596Z,50.30
2019-05-10T13:08:44.326Z,49.40
2019-05-10T13:11:29.253Z,49.80
2019-05-10T13:14:13.946Z,52.00
2019-05-10T13:17:03.924Z,50.30
2019-05-10T13:19:47.026Z,47.80
2019-05-10T13:22:36.824Z,47.00
2019-05-10T13:25:18.703Z,46.50
2019-05-10T13:28:03.431Z,44.20
2019-05-10T13:30:48.126Z,42.00
2019-05-10T13:33:40.893Z,41.30
2019-05-10T13:36:19.954Z,40.30
2019-05-10T13:39:05.168Z,38.50
2019-05-10T13:41:49.949Z,38.00
2019-05-10T13:44:37.116Z,37.70
2019-05-10T13:47:21.847Z,38.70
2019-05-10T13:50:06.763Z,38.50
2019-05-10T13:52:51.928Z,37.40
2019-05-10T13:55:36.687Z,36.50
2019-05-10T13:58:21.506Z,38.30
2019-05-10T14:01:12.901Z,35.90
2019-05-10T14:04:00.118Z,35.40
2019-05-10T14:06:40.539Z,34.10
2019-05-10T14:09:25.354Z,33.60
2019-05-10T14:12:10.578Z,33.80
2019-05-10T14:15:02.960Z,37.20
2019-05-10T14:17:42.159Z,35.30
2019-05-10T14:20:27.691Z,36.50
2019-05-10T14:23:17.432Z,34.10
2019-05-10T14:26:00.730Z,36.30
2019-05-10T14:28:47.402Z,36.60
2019-05-10T14:31:32.970Z,35.40
2019-05-10T14:34:18.006Z,34.20
2019-05-10T14:37:03.121Z,35.40
2019-05-10T14:39:47.728Z,35.90
2019-05-10T14:42:33.593Z,34.60
2019-05-10T14:45:19.090Z,36.60
2019-05-10T14:48:05.313Z,33.10
2019-05-10T14:50:49.973Z,34.30
2019-05-10T14:53:34.849Z,35.40
2019-05-10T14:56:19.532Z,35.00
2019-05-10T14:59:04.561Z,32.80
2019-05-10T15:01:49.767Z,32.40
2019-05-10T15:04:50.256Z,32.20
2019-05-10T15:07:21.856Z,33.60
2019-05-10T15:10:07.653Z,33.10
2019-05-10T15:12:52.505Z,34.00
2019-05-10T15:15:38.641Z,35.00
2019-05-10T15:18:23.633Z,36.30
2019-05-10T15:21:08.765Z,35.40
2019-05-10T15:23:55.344Z,34.90
2019-05-10T15:26:43.655Z,34.00
2019-05-10T15:29:27.769Z,36.30
2019-05-10T15:32:12.446Z,35.10
2019-05-10T15:35:06.540Z,36.70
2019-05-10T15:37:46.154Z,35.00
2019-05-10T15:40:30.957Z,34.10
2019-05-10T15:43:18.644Z,34.50
2019-05-10T15:46:03.770Z,34.60
2019-05-10T15:48:48.521Z,36.10
2019-05-10T15:51:36.102Z,34.70
2019-05-10T15:54:20.710Z,34.50
2019-05-10T15:57:05.902Z,33.30
2019-05-10T15:59:56.292Z,34.20
2019-05-10T16:02:37.763Z,35.00
2019-05-10T16:05:29.714Z,34.10
2019-05-10T16:08:09.521Z,34.80
2019-05-10T16:10:54.358Z,35.30
2019-05-10T16:13:39.024Z,34.10
2019-05-10T16:16:23.840Z,33.40
2019-05-10T16:19:13.039Z,33.20
2019-05-10T16:21:58.136Z,34.00
2019-05-10T16:24:42.790Z,31.90
2019-05-10T16:27:27.589Z,31.50
2019-05-10T16:30:17.718Z,33.70
2019-05-10T16:33:00.068Z,35.10
2019-05-10T16:35:49.840Z,36.70
2019-05-10T16:38:31.730Z,38.00
2019-05-10T16:41:16.950Z,39.70
2019-05-10T16:44:02.339Z,41.10
2019-05-10T16:46:47.462Z,42.80
2019-05-10T16:49:32.655Z,42.80
2019-05-10T16:52:19.477Z,42.60
2019-05-10T16:55:09.429Z,43.20
2019-05-10T16:57:53.117Z,42.50
2019-05-10T17:00:40.657Z,43.50
2019-05-10T17:03:24.630Z,41.30
2019-05-10T17:06:10.538Z,39.20
2019-05-10T17:08:55.596Z,37.70
2019-05-10T17:11:41.669Z,39.00
2019-05-10T17:14:27.386Z,38.20
2019-05-10T17:17:12.608Z,38.00
2019-05-10T17:19:58.710Z,39.00
2019-05-10T17:22:44.161Z,39.80
2019-05-10T17:25:28.895Z,40.60
2019-05-10T17:28:13.628Z,41.50
2019-05-10T17:30:59.974Z,43.00
2019-05-10T17:33:45.126Z,43.20
2019-05-10T17:36:29.983Z,44.10
2019-05-10T17:39:14.621Z,45.00
2019-05-10T17:42:03.139Z,44.70
2019-05-10T17:44:46.342Z,45.20
2019-05-10T17:47:32.256Z,46.20
2019-05-10T17:50:18.063Z,43.90
2019-05-10T17:53:03.172Z,43.80
2019-05-10T17:55:55.721Z,44.30
2019-05-10T17:58:35.287Z,48.40
2019-05-10T18:01:20.507Z,50.00
2019-05-10T18:04:05.355Z,51.30
2019-05-10T18:06:50.215Z,51.60
2019-05-10T18:09:35.118Z,52.60
2019-05-10T18:12:21.048Z,54.60
2019-05-10T18:15:08.659Z,51.40
2019-05-10T18:17:57.508Z,52.20
2019-05-10T18:20:41.990Z,55.90
2019-05-10T18:23:27.439Z,54.60
2019-05-10T18:26:12.264Z,57.80
2019-05-10T18:28:57.838Z,57.80
2019-05-10T18:31:54.662Z,60.00
2019-05-10T18:34:33.059Z,59.80
2019-05-10T18:37:21.823Z,56.30
2019-05-10T18:40:07.414Z,58.90
2019-05-10T18:42:52.209Z,60.00
2019-05-10T18:45:38.404Z,60.40
2019-05-10T18:48:23.347Z,66.10
2019-05-10T18:51:08.285Z,66.70
2019-05-10T18:53:53.209Z,67.40
2019-05-10T18:56:37.937Z,66.80
2019-05-10T18:59:22.791Z,67.10
2019-05-10T19:02:11.762Z,68.70
2019-05-10T19:04:54.919Z,69.00
2019-05-10T19:07:40.293Z,67.90
2019-05-10T19:10:25.135Z,69.50
2019-05-10T19:13:11.234Z,71.10
2019-05-10T19:15:58.558Z,72.60
2019-05-10T19:18:43.828Z,74.20
2019-05-10T19:21:30.667Z,74.20
2019-05-10T19:24:15.915Z,75.00
2019-05-10T19:27:06.494Z,74.30
2019-05-10T19:29:48.253Z,74.40
2019-05-10T19:32:33.160Z,75.30
2019-05-10T19:35:18.128Z,75.70
2019-05-10T19:38:03.288Z,75.60
2019-05-10T19:40:48.071Z,76.10
2019-05-10T19:43:34.090Z,76.20
2019-05-10T19:46:19.074Z,76.10
2019-05-10T19:49:07.568Z,76.70
2019-05-10T19:51:51.127Z,77.40
2019-05-10T19:54:35.954Z,77.30
2019-05-10T19:57:20.819Z,76.90
2019-05-10T20:00:06.183Z,77.80
2019-05-10T20:02:50.704Z,78.10
2019-05-10T20:05:35.648Z,79.00
2019-05-10T20:08:21.010Z,78.20
2019-05-10T20:11:06.233Z,78.40
2019-05-10T20:13:51.063Z,77.90
2019-05-10T20:16:51.389Z,79.10
2019-05-10T20:19:22.712Z,78.60
2019-05-10T20:22:07.714Z,78.50
2019-05-10T20:24:53.041Z,79.60
2019-05-10T20:27:38.122Z,78.80
2019-05-10T20:30:23.236Z,79.40
2019-05-10T20:33:08.407Z,80.60
2019-05-10T20:35:53.261Z,79.40
2019-05-10T20:38:38.442Z,79.70
2019-05-10T20:41:23.213Z,79.60
2019-05-10T20:44:07.913Z,80.70
2019-05-10T20:46:52.930Z,81.20
2019-05-10T20:49:37.847Z,80.80
2019-05-10T20:52:22.723Z,80.50
2019-05-10T20:55:08.029Z,81.10
2019-05-10T20:57:52.814Z,81.50
2019-05-10T21:00:37.626Z,80.50
2019-05-10T21:03:22.341Z,79.60
2019-05-10T21:06:06.957Z,81.40
2019-05-10T21:08:52.373Z,81.00
2019-05-10T21:11:37.343Z,80.60
2019-05-10T21:14:22.613Z,80.90
2019-05-10T21:17:07.442Z,80.70
2019-05-10T21:19:52.251Z,82.10
2019-05-10T21:22:37.521Z,82.10
2019-05-10T21:25:22.179Z,84.20
2019-05-10T21:28:06.940Z,85.00
2019-05-10T21:30:53.572Z,84.50
2019-05-10T21:33:38.334Z,84.00
2019-05-10T21:36:24.799Z,82.80
2019-05-10T21:39:09.985Z,84.20
2019-05-10T21:41:54.814Z,85.10
2019-05-10T21:44:39.428Z,81.80
2019-05-10T21:47:24.229Z,81.50
2019-05-10T21:50:09.469Z,81.30
2019-05-10T21:52:54.553Z,84.30
2019-05-10T21:55:39.349Z,85.30
2019-05-10T21:58:24.183Z,86.50
2019-05-10T22:01:09.093Z,86.50
2019-05-10T22:03:54.181Z,86.50
2019-05-10T22:06:39.292Z,87.30
2019-05-10T22:09:24.658Z,88.00
2019-05-10T22:12:09.470Z,86.40
2019-05-10T22:14:54.446Z,86.10
2019-05-10T22:17:39.155Z,87.50
2019-05-10T22:20:24.211Z,88.20
2019-05-10T22:23:08.902Z,87.00
2019-05-10T22:25:53.645Z,86.50
2019-05-10T22:28:38.365Z,87.00
2019-05-10T22:31:23.278Z,85.50
2019-05-10T22:34:08.434Z,86.20
2019-05-10T22:36:53.315Z,86.50
2019-05-10T22:39:38.790Z,88.10
2019-05-10T22:42:23.589Z,88.50
2019-05-10T22:45:08.767Z,89.30
2019-05-10T22:47:53.807Z,89.80
2019-05-10T22:50:38.645Z,90.10
2019-05-10T22:53:23.349Z,90.50
2019-05-10T22:56:08.172Z,90.50
2019-05-10T22:58:53.061Z,90.60
2019-05-10T23:01:38.012Z,90.30
2019-05-10T23:04:24.017Z,90.50
2019-05-10T23:07:08.906Z,90.40
2019-05-10T23:09:54.240Z,90.70
2019-05-10T23:12:39.086Z,90.70
2019-05-10T23:15:23.806Z,90.30
2019-05-10T23:18:08.628Z,90.20
2019-05-10T23:20:54.058Z,90.50
2019-05-10T23:23:38.999Z,90.50
2019-05-10T23:26:24.331Z,90.80
2019-05-10T23:29:09.219Z,90.40
2019-05-10T23:31:53.934Z,90.40
2019-05-10T23:34:38.758Z,90.80
2019-05-10T23:37:23.526Z,90.50
2019-05-10T23:40:09.111Z,90.40
2019-05-10T23:42:54.106Z,90.60
2019-05-10T23:45:38.975Z,90.40
2019-05-10T23:48:24.135Z,90.10
2019-05-10T23:51:08.967Z,90.50
2019-05-10T23:53:53.862Z,90.50
2019-05-10T23:56:38.692Z,90.50
2019-05-10T23:59:23.438Z,90.70
